^^
NorthLandsweather Station Historical Data
Daily Summary for April 16, 2019 Units:  Both    English   Metric
Daily Weekly Monthly Yearly Custom
  High: Low: Average:
Temperature: 68.0 °F /  20 °C 33.4 °F /  0.8 °C 49.9 °F /  9.9 °C
Dew Point: 38.5 °F /  3.6 °C 26.7 °F /  -2.9 °C 31.5 °F /  -0.3 °C
Humidity: 80% 24% 53%
Wind Speed: 8.1mph /  13km/h - 1.4mph /  2.3km/h
Wind Gust: 4.6mph /  7.4km/h - -
Wind- - WSW
Pressure: 30.01 in /  1016.1 hPa 29.87 in /  1011.4 hPa -
Precipitation: 0.00 in /  0 mm    
Historical Graphs
 
 
Tabular Data for April 16, 2019
Time Temperature Dew Point Pressure Wind Wind Speed Wind Gust Humidity Rainfall Rate (Hourly) solar
00:04 43.7 °F /  6.5 °C 27.7 °F /  -2.4 °C 29.89in /  1012.1hPa ESE 3.5mph /  5.6km/h 0.2mph /  0.3km/h 53% 0.00in /  0mm 0.00 W/m2
00:09 43.8 °F /  6.6 °C 28.7 °F /  -1.8 °C 29.89in /  1012.1hPa Calm     55% 0.00in /  0mm 0.00 W/m2
00:14 43.8 °F /  6.6 °C 30.0 °F /  -1.1 °C 29.89in /  1012.1hPa Calm   0.5mph /  0.8km/h 58% 0.00in /  0mm 0.00 W/m2
00:19 43.7 °F /  6.5 °C 29.9 °F /  -1.2 °C 29.89in /  1012.1hPa ESE 1.0mph /  1.6km/h   58% 0.00in /  0mm 0.00 W/m2
00:24 43.6 °F /  6.4 °C 28.9 °F /  -1.7 °C 29.89in /  1012.1hPa Calm     56% 0.00in /  0mm 0.00 W/m2
00:29 43.5 °F /  6.4 °C 28.4 °F /  -2 °C 29.89in /  1012.1hPa Calm     55% 0.00in /  0mm 0.00 W/m2
00:34 43.4 °F /  6.3 °C 29.2 °F /  -1.6 °C 29.89in /  1012.1hPa Calm     57% 0.00in /  0mm 0.00 W/m2
00:39 43.3 °F /  6.3 °C 29.1 °F /  -1.6 °C 29.89in /  1012.1hPa Calm     57% 0.00in /  0mm 0.00 W/m2
00:44 43.3 °F /  6.3 °C 29.1 °F /  -1.6 °C 29.89in /  1012.1hPa Calm     57% 0.00in /  0mm 0.00 W/m2
00:49 43.2 °F /  6.2 °C 29.4 °F /  -1.4 °C 29.89in /  1012.1hPa Calm     58% 0.00in /  0mm 0.00 W/m2
00:54 43.2 °F /  6.2 °C 29.8 °F /  -1.2 °C 29.89in /  1012.1hPa Calm     59% 0.00in /  0mm 0.00 W/m2
00:59 43.2 °F /  6.2 °C 30.6 °F /  -0.8 °C 29.89in /  1012.1hPa Calm     61% 0.00in /  0mm 0.00 W/m2
01:04 42.9 °F /  6.1 °C 30.8 °F /  -0.7 °C 29.89in /  1012.1hPa Calm     62% 0.00in /  0mm 0.00 W/m2
01:09 42.8 °F /  6 °C 30.7 °F /  -0.7 °C 29.89in /  1012.1hPa Calm     62% 0.00in /  0mm 0.00 W/m2
01:14 42.6 °F /  5.9 °C 30.5 °F /  -0.8 °C 29.89in /  1012.1hPa Calm     62% 0.00in /  0mm 0.00 W/m2
01:19 42.5 °F /  5.8 °C 30.4 °F /  -0.9 °C 29.89in /  1012.1hPa Calm     62% 0.00in /  0mm 0.00 W/m2
01:24 42.5 °F /  5.8 °C 30.8 °F /  -0.7 °C 29.89in /  1012.1hPa Calm     63% 0.00in /  0mm 0.00 W/m2
01:29 42.4 °F /  5.8 °C 29.9 °F /  -1.2 °C 29.89in /  1012.1hPa Calm     61% 0.00in /  0mm 0.00 W/m2
01:34 42.3 °F /  5.7 °C 30.6 °F /  -0.8 °C 29.89in /  1012.1hPa Calm     63% 0.00in /  0mm 0.00 W/m2
01:39 42.0 °F /  5.6 °C 31.1 °F /  -0.5 °C 29.89in /  1012.1hPa Calm     65% 0.00in /  0mm 0.00 W/m2
01:44 41.9 °F /  5.5 °C 31.4 °F /  -0.3 °C 29.89in /  1012.1hPa Calm     66% 0.00in /  0mm 0.00 W/m2
01:49 41.8 °F /  5.4 °C 31.6 °F /  -0.2 °C 29.88in /  1011.7hPa Calm     67% 0.00in /  0mm 0.00 W/m2
01:54 41.8 °F /  5.4 °C 32.0 °F /  0 °C 29.88in /  1011.7hPa Calm     68% 0.00in /  0mm 0.00 W/m2
01:59 41.5 °F /  5.3 °C 32.1 °F /  0.1 °C 29.88in /  1011.7hPa Calm     69% 0.00in /  0mm 0.00 W/m2
02:04 41.3 °F /  5.2 °C 31.9 °F /  -0.1 °C 29.88in /  1011.7hPa Calm     69% 0.00in /  0mm 0.00 W/m2
02:09 41.2 °F /  5.1 °C 31.8 °F /  -0.1 °C 29.88in /  1011.7hPa Calm     69% 0.00in /  0mm 0.00 W/m2
02:14 41.1 °F /  5.1 °C 32.1 °F /  0.1 °C 29.88in /  1011.7hPa Calm     70% 0.00in /  0mm 0.00 W/m2
02:19 41.1 °F /  5.1 °C 32.4 °F /  0.2 °C 29.88in /  1011.7hPa Calm     71% 0.00in /  0mm 0.00 W/m2
02:24 41.1 °F /  5.1 °C 32.4 °F /  0.2 °C 29.88in /  1011.7hPa Calm     71% 0.00in /  0mm 0.00 W/m2
02:29 41.0 °F /  5 °C 32.3 °F /  0.2 °C 29.88in /  1011.7hPa Calm     71% 0.00in /  0mm 0.00 W/m2
02:34 40.9 °F /  4.9 °C 31.9 °F /  -0.1 °C 29.88in /  1011.7hPa Calm     70% 0.00in /  0mm 0.00 W/m2
02:39 40.8 °F /  4.9 °C 32.1 °F /  0.1 °C 29.88in /  1011.7hPa Calm     71% 0.00in /  0mm 0.00 W/m2
02:44 40.6 °F /  4.8 °C 32.3 °F /  0.2 °C 29.88in /  1011.7hPa Calm     72% 0.00in /  0mm 0.00 W/m2
02:49 40.5 °F /  4.7 °C 32.2 °F /  0.1 °C 29.88in /  1011.7hPa Calm     72% 0.00in /  0mm 0.00 W/m2
02:54 40.1 °F /  4.5 °C 31.4 °F /  -0.3 °C 29.87in /  1011.4hPa Calm     71% 0.00in /  0mm 0.00 W/m2
02:59 39.6 °F /  4.2 °C 31.0 °F /  -0.6 °C 29.87in /  1011.4hPa Calm     71% 0.00in /  0mm 0.00 W/m2
03:04 39.2 °F /  4 °C 30.2 °F /  -1 °C 29.87in /  1011.4hPa Calm     70% 0.00in /  0mm 0.00 W/m2
03:09 38.9 °F /  3.8 °C 29.6 °F /  -1.3 °C 29.87in /  1011.4hPa Calm     69% 0.00in /  0mm 0.00 W/m2
03:14 38.6 °F /  3.7 °C 30.0 °F /  -1.1 °C 29.87in /  1011.4hPa Calm     71% 0.00in /  0mm 0.00 W/m2
03:19 38.6 °F /  3.7 °C 30.0 °F /  -1.1 °C 29.87in /  1011.4hPa Calm     71% 0.00in /  0mm 0.00 W/m2
03:24 38.3 °F /  3.5 °C 29.4 °F /  -1.4 °C 29.87in /  1011.4hPa Calm     70% 0.00in /  0mm 0.00 W/m2
03:29 37.9 °F /  3.3 °C 29.0 °F /  -1.7 °C 29.87in /  1011.4hPa Calm     70% 0.00in /  0mm 0.00 W/m2
03:34 37.8 °F /  3.2 °C 28.9 °F /  -1.7 °C 29.87in /  1011.4hPa Calm     70% 0.00in /  0mm 0.00 W/m2
03:39 37.8 °F /  3.2 °C 28.9 °F /  -1.7 °C 29.87in /  1011.4hPa Calm     70% 0.00in /  0mm 0.00 W/m2
03:44 37.8 °F /  3.2 °C 28.9 °F /  -1.7 °C 29.87in /  1011.4hPa Calm     70% 0.00in /  0mm 0.00 W/m2
03:49 37.6 °F /  3.1 °C 28.7 °F /  -1.8 °C 29.87in /  1011.4hPa Calm     70% 0.00in /  0mm 0.00 W/m2
03:54 37.4 °F /  3 °C 28.9 °F /  -1.7 °C 29.87in /  1011.4hPa Calm     71% 0.00in /  0mm 0.00 W/m2
03:59 37.3 °F /  2.9 °C 29.1 °F /  -1.6 °C 29.87in /  1011.4hPa Calm     72% 0.00in /  0mm 0.00 W/m2
04:04 37.0 °F /  2.8 °C 28.5 °F /  -1.9 °C 29.88in /  1011.7hPa Calm     71% 0.00in /  0mm 0.00 W/m2
04:09 36.8 °F /  2.7 °C 28.6 °F /  -1.9 °C 29.88in /  1011.7hPa Calm     72% 0.00in /  0mm 0.00 W/m2
04:14 36.7 °F /  2.6 °C 28.5 °F /  -1.9 °C 29.88in /  1011.7hPa Calm     72% 0.00in /  0mm 0.00 W/m2
04:19 36.1 °F /  2.3 °C 28.3 °F /  -2.1 °C 29.88in /  1011.7hPa Calm     73% 0.00in /  0mm 0.00 W/m2
04:24 35.8 °F /  2.1 °C 28.0 °F /  -2.2 °C 29.88in /  1011.7hPa Calm     73% 0.00in /  0mm 0.00 W/m2
04:29 35.3 °F /  1.8 °C 27.8 °F /  -2.3 °C 29.88in /  1011.7hPa Calm     74% 0.00in /  0mm 0.00 W/m2
04:34 34.8 °F /  1.6 °C 28.0 °F /  -2.2 °C 29.88in /  1011.7hPa Calm     76% 0.00in /  0mm 0.00 W/m2
04:39 34.7 °F /  1.5 °C 27.9 °F /  -2.3 °C 29.88in /  1011.7hPa Calm     76% 0.00in /  0mm 0.00 W/m2
04:44 34.6 °F /  1.4 °C 27.8 °F /  -2.3 °C 29.88in /  1011.7hPa Calm     76% 0.00in /  0mm 0.00 W/m2
04:49 34.2 °F /  1.2 °C 27.7 °F /  -2.4 °C 29.89in /  1012.1hPa Calm     77% 0.00in /  0mm 0.00 W/m2
04:54 34.0 °F /  1.1 °C 27.9 °F /  -2.3 °C 29.89in /  1012.1hPa Calm     78% 0.00in /  0mm 0.00 W/m2
04:59 33.8 °F /  1 °C 27.7 °F /  -2.4 °C 29.89in /  1012.1hPa Calm     78% 0.00in /  0mm 0.00 W/m2
05:04 33.8 °F /  1 °C 27.7 °F /  -2.4 °C 29.89in /  1012.1hPa Calm     78% 0.00in /  0mm 0.00 W/m2
05:09 33.8 °F /  1 °C 27.7 °F /  -2.4 °C 29.90in /  1012.4hPa Calm     78% 0.00in /  0mm 0.00 W/m2
05:14 33.9 °F /  1.1 °C 27.8 °F /  -2.3 °C 29.90in /  1012.4hPa Calm     78% 0.00in /  0mm 0.00 W/m2
05:19 33.9 °F /  1.1 °C 27.8 °F /  -2.3 °C 29.90in /  1012.4hPa Calm     78% 0.00in /  0mm 0.00 W/m2
05:24 33.9 °F /  1.1 °C 27.8 °F /  -2.3 °C 29.90in /  1012.4hPa Calm     78% 0.00in /  0mm 0.00 W/m2
05:29 33.8 °F /  1 °C 27.4 °F /  -2.6 °C 29.91in /  1012.8hPa Calm     77% 0.00in /  0mm 0.00 W/m2
05:34 33.8 °F /  1 °C 27.4 °F /  -2.6 °C 29.91in /  1012.8hPa Calm     77% 0.00in /  0mm 0.00 W/m2
05:39 33.9 °F /  1.1 °C 27.4 °F /  -2.6 °C 29.91in /  1012.8hPa Calm     77% 0.00in /  0mm 0.00 W/m2
05:44 33.9 °F /  1.1 °C 27.4 °F /  -2.6 °C 29.91in /  1012.8hPa Calm     77% 0.00in /  0mm 0.00 W/m2
05:49 34.0 °F /  1.1 °C 27.2 °F /  -2.7 °C 29.91in /  1012.8hPa Calm     76% 0.00in /  0mm 0.00 W/m2
05:54 33.9 °F /  1.1 °C 27.1 °F /  -2.7 °C 29.91in /  1012.8hPa Calm     76% 0.00in /  0mm 0.00 W/m2
05:59 33.9 °F /  1.1 °C 27.1 °F /  -2.7 °C 29.91in /  1012.8hPa Calm     76% 0.00in /  0mm 0.00 W/m2
06:04 33.7 °F /  0.9 °C 26.9 °F /  -2.8 °C 29.91in /  1012.8hPa Calm     76% 0.00in /  0mm 0.00 W/m2
06:09 33.5 °F /  0.8 °C 26.7 °F /  -2.9 °C 29.91in /  1012.8hPa Calm     76% 0.00in /  0mm 0.00 W/m2
06:14 33.5 °F /  0.8 °C 27.1 °F /  -2.7 °C 29.91in /  1012.8hPa Calm     77% 0.00in /  0mm 49.20 W/m2
06:19 33.4 °F /  0.8 °C 27.3 °F /  -2.6 °C 29.92in /  1013.1hPa Calm     78% 0.00in /  0mm 102.70 W/m2
06:24 33.5 °F /  0.8 °C 27.4 °F /  -2.6 °C 29.91in /  1012.8hPa Calm     78% 0.00in /  0mm 132.00 W/m2
06:29 33.5 °F /  0.8 °C 27.4 °F /  -2.6 °C 29.91in /  1012.8hPa Calm     78% 0.00in /  0mm 140.10 W/m2
06:34 33.6 °F /  0.9 °C 27.5 °F /  -2.5 °C 29.91in /  1012.8hPa Calm     78% 0.00in /  0mm 162.30 W/m2
06:39 33.7 °F /  0.9 °C 27.6 °F /  -2.4 °C 29.92in /  1013.1hPa Calm     78% 0.00in /  0mm 176.40 W/m2
06:44 33.8 °F /  1 °C 27.7 °F /  -2.4 °C 29.92in /  1013.1hPa Calm     78% 0.00in /  0mm 179.50 W/m2
06:49 34.0 °F /  1.1 °C 28.2 °F /  -2.1 °C 29.92in /  1013.1hPa Calm     79% 0.00in /  0mm 184.50 W/m2
06:54 34.1 °F /  1.2 °C 28.0 °F /  -2.2 °C 29.93in /  1013.4hPa Calm     78% 0.00in /  0mm 179.50 W/m2
06:59 34.0 °F /  1.1 °C 27.9 °F /  -2.3 °C 29.93in /  1013.4hPa Calm     78% 0.00in /  0mm 175.40 W/m2
07:04 34.1 °F /  1.2 °C 28.3 °F /  -2.1 °C 29.93in /  1013.4hPa Calm     79% 0.00in /  0mm 176.40 W/m2
07:09 34.2 °F /  1.2 °C 28.4 °F /  -2 °C 29.93in /  1013.4hPa Calm     79% 0.00in /  0mm 190.60 W/m2
07:14 34.3 °F /  1.3 °C 28.5 °F /  -1.9 °C 29.93in /  1013.4hPa Calm     79% 0.00in /  0mm 198.70 W/m2
07:19 34.5 °F /  1.4 °C 28.7 °F /  -1.8 °C 29.93in /  1013.4hPa Calm     79% 0.00in /  0mm 191.60 W/m2
07:24 34.6 °F /  1.4 °C 28.8 °F /  -1.8 °C 29.94in /  1013.8hPa Calm     79% 0.00in /  0mm 188.60 W/m2
07:29 34.4 °F /  1.3 °C 28.6 °F /  -1.9 °C 29.94in /  1013.8hPa Calm     79% 0.00in /  0mm 190.60 W/m2
07:34 34.5 °F /  1.4 °C 28.7 °F /  -1.8 °C 29.94in /  1013.8hPa Calm     79% 0.00in /  0mm 198.70 W/m2
07:39 34.8 °F /  1.6 °C 29.3 °F /  -1.5 °C 29.94in /  1013.8hPa Calm     80% 0.00in /  0mm 201.70 W/m2
07:44 35.1 °F /  1.7 °C 29.2 °F /  -1.6 °C 29.95in /  1014.1hPa Calm     79% 0.00in /  0mm 204.70 W/m2
07:49 35.5 °F /  1.9 °C 29.6 °F /  -1.3 °C 29.95in /  1014.1hPa Calm     79% 0.00in /  0mm 206.70 W/m2
07:54 35.9 °F /  2.2 °C 30.0 °F /  -1.1 °C 29.95in /  1014.1hPa Calm     79% 0.00in /  0mm 207.80 W/m2
07:59 36.5 °F /  2.5 °C 30.3 °F /  -0.9 °C 29.95in /  1014.1hPa Calm     78% 0.00in /  0mm 204.70 W/m2
08:04 37.3 °F /  2.9 °C 30.7 °F /  -0.7 °C 29.95in /  1014.1hPa Calm     77% 0.00in /  0mm 211.80 W/m2
08:09 38.0 °F /  3.3 °C 31.4 °F /  -0.3 °C 29.94in /  1013.8hPa Calm     77% 0.00in /  0mm 213.80 W/m2
08:14 39.0 °F /  3.9 °C 32.4 °F /  0.2 °C 29.94in /  1013.8hPa Calm     77% 0.00in /  0mm 216.80 W/m2
08:19 39.9 °F /  4.4 °C 32.9 °F /  0.5 °C 29.95in /  1014.1hPa Calm     76% 0.00in /  0mm 220.90 W/m2
08:24 40.6 °F /  4.8 °C 33.0 °F /  0.6 °C 29.94in /  1013.8hPa Calm     74% 0.00in /  0mm 216.80 W/m2
08:29 41.3 °F /  5.2 °C 33.6 °F /  0.9 °C 29.94in /  1013.8hPa Calm     74% 0.00in /  0mm 222.90 W/m2
08:34 42.0 °F /  5.6 °C 34.0 °F /  1.1 °C 29.94in /  1013.8hPa Calm     73% 0.00in /  0mm 220.90 W/m2
08:39 42.9 °F /  6.1 °C 34.8 °F /  1.6 °C 29.95in /  1014.1hPa Calm     73% 0.00in /  0mm 225.90 W/m2
08:44 43.8 °F /  6.6 °C 34.3 °F /  1.3 °C 29.95in /  1014.1hPa Calm     69% 0.00in /  0mm 224.90 W/m2
08:49 44.6 °F /  7 °C 34.3 °F /  1.3 °C 29.95in /  1014.1hPa Calm     67% 0.00in /  0mm 223.90 W/m2
08:54 45.4 °F /  7.4 °C 33.9 °F /  1.1 °C 29.95in /  1014.1hPa ESE 1.2mph /  1.9km/h   64% 0.00in /  0mm 225.90 W/m2
08:59 46.1 °F /  7.8 °C 35.0 °F /  1.7 °C 29.95in /  1014.1hPa ESE 2.3mph /  3.7km/h   65% 0.00in /  0mm 231.00 W/m2
09:04 46.7 °F /  8.2 °C 35.2 °F /  1.8 °C 29.95in /  1014.1hPa Calm     64% 0.00in /  0mm 242.10 W/m2
09:09 47.3 °F /  8.5 °C 34.1 °F /  1.2 °C 29.95in /  1014.1hPa ESE 3.5mph /  5.6km/h 1.0mph /  1.6km/h 60% 0.00in /  0mm 238.10 W/m2
09:14 48.1 °F /  8.9 °C 34.4 °F /  1.3 °C 29.95in /  1014.1hPa West 3.5mph /  5.6km/h 1.7mph /  2.7km/h 59% 0.00in /  0mm 234.00 W/m2
09:19 48.8 °F /  9.3 °C 34.2 °F /  1.2 °C 29.95in /  1014.1hPa West 3.5mph /  5.6km/h 0.2mph /  0.3km/h 57% 0.00in /  0mm 235.00 W/m2
09:24 49.3 °F /  9.6 °C 34.7 °F /  1.5 °C 29.95in /  1014.1hPa West 2.3mph /  3.7km/h 0.8mph /  1.3km/h 57% 0.00in /  0mm 238.10 W/m2
09:29 49.4 °F /  9.7 °C 34.3 °F /  1.3 °C 29.95in /  1014.1hPa East 2.3mph /  3.7km/h 1.4mph /  2.3km/h 56% 0.00in /  0mm 239.10 W/m2
09:34 49.6 °F /  9.8 °C 34.5 °F /  1.4 °C 29.95in /  1014.1hPa NNW 2.3mph /  3.7km/h 1.3mph /  2.1km/h 56% 0.00in /  0mm 242.10 W/m2
09:39 49.8 °F /  9.9 °C 35.2 °F /  1.8 °C 29.95in /  1014.1hPa West 4.6mph /  7.4km/h 2.5mph /  4km/h 57% 0.00in /  0mm 258.30 W/m2
09:44 50.2 °F /  10.1 °C 35.5 °F /  1.9 °C 29.95in /  1014.1hPa SW 1.2mph /  1.9km/h   57% 0.00in /  0mm 257.20 W/m2
09:49 50.6 °F /  10.3 °C 35.5 °F /  1.9 °C 29.95in /  1014.1hPa West 2.3mph /  3.7km/h 0.9mph /  1.4km/h 56% 0.00in /  0mm 262.30 W/m2
09:54 51.0 °F /  10.6 °C 35.4 °F /  1.9 °C 29.95in /  1014.1hPa NE 2.3mph /  3.7km/h 0.7mph /  1.1km/h 55% 0.00in /  0mm 258.30 W/m2
09:59 51.4 °F /  10.8 °C 35.8 °F /  2.1 °C 29.95in /  1014.1hPa WNW 3.5mph /  5.6km/h 1.7mph /  2.7km/h 55% 0.00in /  0mm 248.20 W/m2
10:04 51.4 °F /  10.8 °C 35.8 °F /  2.1 °C 29.95in /  1014.1hPa West 5.0mph /  8km/h 2.8mph /  4.5km/h 55% 0.00in /  0mm 249.20 W/m2
10:09 51.4 °F /  10.8 °C 34.8 °F /  1.6 °C 29.95in /  1014.1hPa WNW 4.6mph /  7.4km/h 1.0mph /  1.6km/h 53% 0.00in /  0mm 247.10 W/m2
10:14 51.5 °F /  10.8 °C 34.9 °F /  1.6 °C 29.95in /  1014.1hPa West 3.5mph /  5.6km/h 2.6mph /  4.2km/h 53% 0.00in /  0mm 253.20 W/m2
10:19 51.7 °F /  10.9 °C 35.1 °F /  1.7 °C 29.95in /  1014.1hPa West 3.5mph /  5.6km/h 1.9mph /  3.1km/h 53% 0.00in /  0mm 252.20 W/m2
10:24 51.9 °F /  11.1 °C 35.3 °F /  1.8 °C 29.95in /  1014.1hPa WSW 3.5mph /  5.6km/h 3.4mph /  5.5km/h 53% 0.00in /  0mm 257.20 W/m2
10:29 52.3 °F /  11.3 °C 35.2 °F /  1.8 °C 29.95in /  1014.1hPa West 2.3mph /  3.7km/h 1.5mph /  2.4km/h 52% 0.00in /  0mm 257.20 W/m2
10:34 52.7 °F /  11.5 °C 35.6 °F /  2 °C 29.95in /  1014.1hPa Calm     52% 0.00in /  0mm 251.20 W/m2
10:39 53.1 °F /  11.7 °C 35.4 °F /  1.9 °C 29.95in /  1014.1hPa North 1.2mph /  1.9km/h 0.3mph /  0.5km/h 51% 0.00in /  0mm 255.20 W/m2
10:44 53.5 °F /  11.9 °C 35.8 °F /  2.1 °C 29.96in /  1014.4hPa WSW 3.5mph /  5.6km/h 0.3mph /  0.5km/h 51% 0.00in /  0mm 254.20 W/m2
10:49 54.1 °F /  12.3 °C 36.4 °F /  2.4 °C 29.95in /  1014.1hPa WNW 2.3mph /  3.7km/h 1.0mph /  1.6km/h 51% 0.00in /  0mm 261.30 W/m2
10:54 54.6 °F /  12.6 °C 36.8 °F /  2.7 °C 29.95in /  1014.1hPa West 3.5mph /  5.6km/h 0.2mph /  0.3km/h 51% 0.00in /  0mm 292.60 W/m2
10:59 55.1 °F /  12.8 °C 37.3 °F /  2.9 °C 29.95in /  1014.1hPa West 1.2mph /  1.9km/h 0.2mph /  0.3km/h 51% 0.00in /  0mm 322.90 W/m2
11:04 55.8 °F /  13.2 °C 36.9 °F /  2.7 °C 29.96in /  1014.4hPa West 2.3mph /  3.7km/h 1.0mph /  1.6km/h 49% 0.00in /  0mm 413.80 W/m2
11:09 56.7 °F /  13.7 °C 37.2 °F /  2.9 °C 29.95in /  1014.1hPa West 1.2mph /  1.9km/h 0.5mph /  0.8km/h 48% 0.00in /  0mm 444.10 W/m2
11:14 57.2 °F /  14 °C 36.6 °F /  2.6 °C 29.95in /  1014.1hPa WNW 2.0mph /  3.2km/h 1.2mph /  1.9km/h 46% 0.00in /  0mm 629.90 W/m2
11:19 57.8 °F /  14.3 °C 36.6 °F /  2.6 °C 29.95in /  1014.1hPa West 1.2mph /  1.9km/h   45% 0.00in /  0mm 689.50 W/m2
11:24 58.4 °F /  14.7 °C 36.6 °F /  2.6 °C 29.95in /  1014.1hPa WNW 3.5mph /  5.6km/h 1.1mph /  1.8km/h 44% 0.00in /  0mm 689.50 W/m2
11:29 59.1 °F /  15.1 °C 36.6 °F /  2.6 °C 29.95in /  1014.1hPa West 1.2mph /  1.9km/h 0.2mph /  0.3km/h 43% 0.00in /  0mm 763.30 W/m2
11:34 59.9 °F /  15.5 °C 36.7 °F /  2.6 °C 29.95in /  1014.1hPa NNW 3.5mph /  5.6km/h 0.8mph /  1.3km/h 42% 0.00in /  0mm 788.50 W/m2
11:39 60.0 °F /  15.6 °C 36.8 °F /  2.7 °C 29.95in /  1014.1hPa NNW 1.2mph /  1.9km/h   42% 0.00in /  0mm 792.50 W/m2
11:44 59.6 °F /  15.3 °C 36.5 °F /  2.5 °C 29.95in /  1014.1hPa ESE 3.5mph /  5.6km/h 0.9mph /  1.4km/h 42% 0.00in /  0mm 797.60 W/m2
11:49 59.7 °F /  15.4 °C 37.2 °F /  2.9 °C 29.95in /  1014.1hPa WSW 3.5mph /  5.6km/h 2.6mph /  4.2km/h 43% 0.00in /  0mm 814.80 W/m2
11:54 60.5 °F /  15.8 °C 38.5 °F /  3.6 °C 29.95in /  1014.1hPa WSW 1.2mph /  1.9km/h   44% 0.00in /  0mm 812.70 W/m2
11:59 61.1 °F /  16.2 °C 36.6 °F /  2.6 °C 29.95in /  1014.1hPa SSW 5.8mph /  9.3km/h 1.8mph /  2.9km/h 40% 0.00in /  0mm 814.80 W/m2
12:04 61.5 °F /  16.4 °C 35.6 °F /  2 °C 29.95in /  1014.1hPa WNW 3.5mph /  5.6km/h 0.2mph /  0.3km/h 38% 0.00in /  0mm 824.90 W/m2
12:09 61.8 °F /  16.6 °C 37.2 °F /  2.9 °C 29.94in /  1013.8hPa South 2.3mph /  3.7km/h 1.5mph /  2.4km/h 40% 0.00in /  0mm 826.90 W/m2
12:14 62.0 °F /  16.7 °C 36.7 °F /  2.6 °C 29.95in /  1014.1hPa West 4.0mph /  6.4km/h 3.0mph /  4.8km/h 39% 0.00in /  0mm 830.90 W/m2
12:19 62.2 °F /  16.8 °C 37.6 °F /  3.1 °C 29.95in /  1014.1hPa NNW 3.5mph /  5.6km/h 0.7mph /  1.1km/h 40% 0.00in /  0mm 839.00 W/m2
12:24 62.6 °F /  17 °C 37.9 °F /  3.3 °C 29.95in /  1014.1hPa West 1.2mph /  1.9km/h 0.7mph /  1.1km/h 40% 0.00in /  0mm 841.00 W/m2
12:29 63.1 °F /  17.3 °C 37.7 °F /  3.2 °C 29.95in /  1014.1hPa WNW 2.3mph /  3.7km/h 1.7mph /  2.7km/h 39% 0.00in /  0mm 842.00 W/m2
12:34 63.1 °F /  17.3 °C 36.4 °F /  2.4 °C 29.95in /  1014.1hPa NNE 3.5mph /  5.6km/h 2.4mph /  3.9km/h 37% 0.00in /  0mm 847.10 W/m2
12:39 62.4 °F /  16.9 °C 35.8 °F /  2.1 °C 29.95in /  1014.1hPa North 4.6mph /  7.4km/h 2.0mph /  3.2km/h 37% 0.00in /  0mm 847.10 W/m2
12:44 62.3 °F /  16.8 °C 36.4 °F /  2.4 °C 29.95in /  1014.1hPa NW 2.3mph /  3.7km/h   38% 0.00in /  0mm 855.20 W/m2
12:49 62.5 °F /  16.9 °C 36.5 °F /  2.5 °C 29.95in /  1014.1hPa NE 3.5mph /  5.6km/h 2.1mph /  3.4km/h 38% 0.00in /  0mm 853.10 W/m2
12:54 62.7 °F /  17.1 °C 36.0 °F /  2.2 °C 29.95in /  1014.1hPa West 3.5mph /  5.6km/h 1.7mph /  2.7km/h 37% 0.00in /  0mm 857.20 W/m2
12:59 62.9 °F /  17.2 °C 36.2 °F /  2.3 °C 29.95in /  1014.1hPa NNE 3.5mph /  5.6km/h 1.6mph /  2.6km/h 37% 0.00in /  0mm 854.20 W/m2
13:04 63.0 °F /  17.2 °C 36.3 °F /  2.4 °C 29.95in /  1014.1hPa WNW 4.6mph /  7.4km/h 1.9mph /  3.1km/h 37% 0.00in /  0mm 857.20 W/m2
13:09 63.3 °F /  17.4 °C 35.2 °F /  1.8 °C 29.95in /  1014.1hPa WSW 3.5mph /  5.6km/h 2.3mph /  3.7km/h 35% 0.00in /  0mm 861.20 W/m2
13:14 63.6 °F /  17.6 °C 34.7 °F /  1.5 °C 29.95in /  1014.1hPa SW 6.9mph /  11.1km/h 2.6mph /  4.2km/h 34% 0.00in /  0mm 858.20 W/m2
13:19 63.6 °F /  17.6 °C 35.4 °F /  1.9 °C 29.95in /  1014.1hPa WSW 3.5mph /  5.6km/h 0.2mph /  0.3km/h 35% 0.00in /  0mm 863.20 W/m2
13:24 63.5 °F /  17.5 °C 35.3 °F /  1.8 °C 29.95in /  1014.1hPa West 5.8mph /  9.3km/h 2.0mph /  3.2km/h 35% 0.00in /  0mm 417.80 W/m2
13:29 63.7 °F /  17.6 °C 35.5 °F /  1.9 °C 29.95in /  1014.1hPa WNW 4.6mph /  7.4km/h 3.5mph /  5.6km/h 35% 0.00in /  0mm 417.80 W/m2
13:34 63.7 °F /  17.6 °C 35.5 °F /  1.9 °C 29.95in /  1014.1hPa West 3.5mph /  5.6km/h 0.8mph /  1.3km/h 35% 0.00in /  0mm 317.80 W/m2
13:39 63.8 °F /  17.7 °C 35.6 °F /  2 °C 29.95in /  1014.1hPa NNE 4.6mph /  7.4km/h 1.1mph /  1.8km/h 35% 0.00in /  0mm 346.10 W/m2
13:44 63.7 °F /  17.6 °C 34.0 °F /  1.1 °C 29.95in /  1014.1hPa West 4.6mph /  7.4km/h 3.8mph /  6.1km/h 33% 0.00in /  0mm 855.20 W/m2
13:49 63.7 °F /  17.6 °C 33.3 °F /  0.7 °C 29.95in /  1014.1hPa WNW 5.8mph /  9.3km/h 4.2mph /  6.8km/h 32% 0.00in /  0mm 376.40 W/m2
13:54 63.9 °F /  17.7 °C 35.0 °F /  1.7 °C 29.95in /  1014.1hPa SW 3.5mph /  5.6km/h 1.6mph /  2.6km/h 34% 0.00in /  0mm 376.40 W/m2
13:59 64.0 °F /  17.8 °C 33.5 °F /  0.8 °C 29.95in /  1014.1hPa SW 6.9mph /  11.1km/h 3.0mph /  4.8km/h 32% 0.00in /  0mm 324.90 W/m2
14:04 63.5 °F /  17.5 °C 32.3 °F /  0.2 °C 29.95in /  1014.1hPa WSW 3.5mph /  5.6km/h 3.2mph /  5.1km/h 31% 0.00in /  0mm 288.60 W/m2
14:09 63.2 °F /  17.3 °C 32.8 °F /  0.4 °C 29.95in /  1014.1hPa WSW 4.6mph /  7.4km/h 2.8mph /  4.5km/h 32% 0.00in /  0mm 285.50 W/m2
14:14 63.2 °F /  17.3 °C 32.0 °F /  0 °C 29.95in /  1014.1hPa NNW 2.3mph /  3.7km/h 1.5mph /  2.4km/h 31% 0.00in /  0mm 284.50 W/m2
14:19 63.2 °F /  17.3 °C 31.2 °F /  -0.4 °C 29.95in /  1014.1hPa WSW 5.0mph /  8km/h 2.9mph /  4.7km/h 30% 0.00in /  0mm 285.50 W/m2
14:24 63.0 °F /  17.2 °C 31.9 °F /  -0.1 °C 29.95in /  1014.1hPa NNE 6.9mph /  11.1km/h 4.6mph /  7.4km/h 31% 0.00in /  0mm 282.50 W/m2
14:29 63.0 °F /  17.2 °C 32.7 °F /  0.4 °C 29.95in /  1014.1hPa SW 4.6mph /  7.4km/h 2.9mph /  4.7km/h 32% 0.00in /  0mm 285.50 W/m2
14:34 63.0 °F /  17.2 °C 31.0 °F /  -0.6 °C 29.95in /  1014.1hPa NNW 3.5mph /  5.6km/h 3.2mph /  5.1km/h 30% 0.00in /  0mm 280.50 W/m2
14:39 63.1 °F /  17.3 °C 32.7 °F /  0.4 °C 29.95in /  1014.1hPa NNE 3.5mph /  5.6km/h 0.9mph /  1.4km/h 32% 0.00in /  0mm 277.40 W/m2
14:44 63.1 °F /  17.3 °C 31.1 °F /  -0.5 °C 29.95in /  1014.1hPa West 8.0mph /  12.9km/h 2.8mph /  4.5km/h 30% 0.00in /  0mm 281.50 W/m2
14:49 63.3 °F /  17.4 °C 32.9 °F /  0.5 °C 29.95in /  1014.1hPa NE 4.6mph /  7.4km/h 1.6mph /  2.6km/h 32% 0.00in /  0mm 306.70 W/m2
14:54 63.4 °F /  17.4 °C 33.0 °F /  0.6 °C 29.95in /  1014.1hPa SSE 3.5mph /  5.6km/h 1.3mph /  2.1km/h 32% 0.00in /  0mm 314.80 W/m2
14:59 63.7 °F /  17.6 °C 32.5 °F /  0.3 °C 29.95in /  1014.1hPa WNW 3.5mph /  5.6km/h 2.0mph /  3.2km/h 31% 0.00in /  0mm 287.50 W/m2
15:04 64.0 °F /  17.8 °C 31.1 °F /  -0.5 °C 29.95in /  1014.1hPa WSW 8.1mph /  13km/h 1.1mph /  1.8km/h 29% 0.00in /  0mm 291.60 W/m2
15:09 64.2 °F /  17.9 °C 31.3 °F /  -0.4 °C 29.95in /  1014.1hPa WSW 3.5mph /  5.6km/h 2.0mph /  3.2km/h 29% 0.00in /  0mm 287.50 W/m2
15:14 64.5 °F /  18.1 °C 31.5 °F /  -0.3 °C 29.95in /  1014.1hPa NW 3.5mph /  5.6km/h 1.5mph /  2.4km/h 29% 0.00in /  0mm 333.00 W/m2
15:19 64.7 °F /  18.2 °C 30.8 °F /  -0.7 °C 29.95in /  1014.1hPa WSW 3.5mph /  5.6km/h 2.9mph /  4.7km/h 28% 0.00in /  0mm 828.90 W/m2
15:24 64.8 °F /  18.2 °C 31.8 °F /  -0.1 °C 29.95in /  1014.1hPa North 3.5mph /  5.6km/h 3.2mph /  5.1km/h 29% 0.00in /  0mm 870.30 W/m2
15:29 64.9 °F /  18.3 °C 31.9 °F /  -0.1 °C 29.94in /  1013.8hPa West 3.5mph /  5.6km/h 1.5mph /  2.4km/h 29% 0.00in /  0mm 810.70 W/m2
15:34 64.8 °F /  18.2 °C 31.8 °F /  -0.1 °C 29.94in /  1013.8hPa SSW 3.5mph /  5.6km/h 3.7mph /  6km/h 29% 0.00in /  0mm 814.80 W/m2
15:39 64.8 °F /  18.2 °C 30.9 °F /  -0.6 °C 29.94in /  1013.8hPa NW 6.9mph /  11.1km/h 2.5mph /  4km/h 28% 0.00in /  0mm 673.40 W/m2
15:44 64.9 °F /  18.3 °C 31.0 °F /  -0.6 °C 29.94in /  1013.8hPa SW 4.6mph /  7.4km/h 1.5mph /  2.4km/h 28% 0.00in /  0mm 441.10 W/m2
15:49 64.7 °F /  18.2 °C 32.5 °F /  0.3 °C 29.94in /  1013.8hPa North 3.0mph /  4.8km/h 2.2mph /  3.5km/h 30% 0.00in /  0mm 849.10 W/m2
15:54 64.8 °F /  18.2 °C 31.8 °F /  -0.1 °C 29.94in /  1013.8hPa SW 6.9mph /  11.1km/h 2.9mph /  4.7km/h 29% 0.00in /  0mm 819.80 W/m2
15:59 64.7 °F /  18.2 °C 32.5 °F /  0.3 °C 29.94in /  1013.8hPa WSW 2.0mph /  3.2km/h 1.8mph /  2.9km/h 30% 0.00in /  0mm 842.00 W/m2
16:04 64.9 °F /  18.3 °C 31.9 °F /  -0.1 °C 29.94in /  1013.8hPa WSW 3.5mph /  5.6km/h 2.0mph /  3.2km/h 29% 0.00in /  0mm 823.80 W/m2
16:09 65.0 °F /  18.3 °C 31.1 °F /  -0.5 °C 29.95in /  1014.1hPa West 3.5mph /  5.6km/h 1.0mph /  1.6km/h 28% 0.00in /  0mm 880.40 W/m2
16:14 65.3 °F /  18.5 °C 30.4 °F /  -0.9 °C 29.94in /  1013.8hPa NW 5.0mph /  8km/h 2.0mph /  3.2km/h 27% 0.00in /  0mm 635.00 W/m2
16:19 65.7 °F /  18.7 °C 33.4 °F /  0.8 °C 29.94in /  1013.8hPa WNW 1.2mph /  1.9km/h   30% 0.00in /  0mm 851.10 W/m2
16:24 65.9 °F /  18.8 °C 34.4 °F /  1.3 °C 29.94in /  1013.8hPa Calm     31% 0.00in /  0mm 866.30 W/m2
16:29 66.3 °F /  19.1 °C 32.2 °F /  0.1 °C 29.95in /  1014.1hPa West 5.0mph /  8km/h 3.4mph /  5.5km/h 28% 0.00in /  0mm 871.30 W/m2
16:34 66.8 °F /  19.3 °C 32.6 °F /  0.3 °C 29.95in /  1014.1hPa NW 3.5mph /  5.6km/h 1.1mph /  1.8km/h 28% 0.00in /  0mm 873.30 W/m2
16:39 67.3 °F /  19.6 °C 32.1 °F /  0.1 °C 29.95in /  1014.1hPa SSW 1.2mph /  1.9km/h 0.1mph /  0.2km/h 27% 0.00in /  0mm 870.30 W/m2
16:44 67.2 °F /  19.6 °C 32.1 °F /  0.1 °C 29.95in /  1014.1hPa WSW 6.0mph /  9.7km/h 2.3mph /  3.7km/h 27% 0.00in /  0mm 871.30 W/m2
16:49 67.0 °F /  19.4 °C 31.9 °F /  -0.1 °C 29.95in /  1014.1hPa WSW 2.3mph /  3.7km/h 0.3mph /  0.5km/h 27% 0.00in /  0mm 855.20 W/m2
16:54 66.3 °F /  19.1 °C 31.3 °F /  -0.4 °C 29.95in /  1014.1hPa SW 6.0mph /  9.7km/h 3.2mph /  5.1km/h 27% 0.00in /  0mm 342.10 W/m2
16:59 66.2 °F /  19 °C 30.3 °F /  -0.9 °C 29.95in /  1014.1hPa SW 4.6mph /  7.4km/h 0.1mph /  0.2km/h 26% 0.00in /  0mm 868.30 W/m2
17:04 66.7 °F /  19.3 °C 30.7 °F /  -0.7 °C 29.95in /  1014.1hPa SW 1.2mph /  1.9km/h 0.1mph /  0.2km/h 26% 0.00in /  0mm 868.30 W/m2
17:09 66.9 °F /  19.4 °C 31.8 °F /  -0.1 °C 29.95in /  1014.1hPa SW 1.2mph /  1.9km/h   27% 0.00in /  0mm 866.30 W/m2
17:14 67.2 °F /  19.6 °C 31.1 °F /  -0.5 °C 29.95in /  1014.1hPa SSW 3.5mph /  5.6km/h 2.6mph /  4.2km/h 26% 0.00in /  0mm 862.20 W/m2
17:19 67.3 °F /  19.6 °C 29.2 °F /  -1.6 °C 29.95in /  1014.1hPa WNW 5.8mph /  9.3km/h 2.3mph /  3.7km/h 24% 0.00in /  0mm 855.20 W/m2
17:24 67.7 °F /  19.8 °C 29.6 °F /  -1.3 °C 29.95in /  1014.1hPa WNW 2.3mph /  3.7km/h 0.7mph /  1.1km/h 24% 0.00in /  0mm 854.20 W/m2
17:29 67.9 °F /  19.9 °C 29.7 °F /  -1.3 °C 29.95in /  1014.1hPa West 2.3mph /  3.7km/h 0.3mph /  0.5km/h 24% 0.00in /  0mm 854.20 W/m2
17:34 67.9 °F /  19.9 °C 29.7 °F /  -1.3 °C 29.95in /  1014.1hPa Calm   0.1mph /  0.2km/h 24% 0.00in /  0mm 856.20 W/m2
17:39 68.0 °F /  20 °C 29.8 °F /  -1.2 °C 29.95in /  1014.1hPa NNW 4.0mph /  6.4km/h 1.6mph /  2.6km/h 24% 0.00in /  0mm 848.10 W/m2
17:44 67.7 °F /  19.8 °C 32.5 °F /  0.3 °C 29.95in /  1014.1hPa WSW 3.5mph /  5.6km/h 0.1mph /  0.2km/h 27% 0.00in /  0mm 838.00 W/m2
17:49 67.6 °F /  19.8 °C 30.5 °F /  -0.8 °C 29.95in /  1014.1hPa West 2.3mph /  3.7km/h 0.3mph /  0.5km/h 25% 0.00in /  0mm 831.90 W/m2
17:54 67.2 °F /  19.6 °C 29.2 °F /  -1.6 °C 29.95in /  1014.1hPa SW 3.5mph /  5.6km/h 2.0mph /  3.2km/h 24% 0.00in /  0mm 814.80 W/m2
17:59 66.7 °F /  19.3 °C 28.7 °F /  -1.8 °C 29.96in /  1014.4hPa West 6.9mph /  11.1km/h 1.4mph /  2.3km/h 24% 0.00in /  0mm 334.00 W/m2
18:04 66.0 °F /  18.9 °C 30.1 °F /  -1.1 °C 29.96in /  1014.4hPa West 2.0mph /  3.2km/h 0.8mph /  1.3km/h 26% 0.00in /  0mm 317.80 W/m2
18:09 65.3 °F /  18.5 °C 29.5 °F /  -1.4 °C 29.96in /  1014.4hPa NW 2.3mph /  3.7km/h 0.8mph /  1.3km/h 26% 0.00in /  0mm 313.80 W/m2
18:14 65.1 °F /  18.4 °C 29.3 °F /  -1.5 °C 29.96in /  1014.4hPa West 2.3mph /  3.7km/h 0.3mph /  0.5km/h 26% 0.00in /  0mm 306.70 W/m2
18:19 65.0 °F /  18.3 °C 29.2 °F /  -1.6 °C 29.96in /  1014.4hPa WSW 2.3mph /  3.7km/h 0.3mph /  0.5km/h 26% 0.00in /  0mm 309.80 W/m2
18:24 64.8 °F /  18.2 °C 29.1 °F /  -1.6 °C 29.96in /  1014.4hPa West 3.5mph /  5.6km/h 1.1mph /  1.8km/h 26% 0.00in /  0mm 303.70 W/m2
18:29 64.8 °F /  18.2 °C 28.1 °F /  -2.2 °C 29.96in /  1014.4hPa West 2.3mph /  3.7km/h   25% 0.00in /  0mm 292.60 W/m2
18:34 64.6 °F /  18.1 °C 30.7 °F /  -0.7 °C 29.96in /  1014.4hPa West 1.2mph /  1.9km/h   28% 0.00in /  0mm 285.50 W/m2
18:39 64.4 °F /  18 °C 27.8 °F /  -2.3 °C 29.96in /  1014.4hPa West 1.2mph /  1.9km/h 0.3mph /  0.5km/h 25% 0.00in /  0mm 282.50 W/m2
18:44 64.2 °F /  17.9 °C 31.3 °F /  -0.4 °C 29.96in /  1014.4hPa Calm   0.1mph /  0.2km/h 29% 0.00in /  0mm 338.00 W/m2
18:49 63.9 °F /  17.7 °C 28.3 °F /  -2.1 °C 29.96in /  1014.4hPa West 2.3mph /  3.7km/h 0.7mph /  1.1km/h 26% 0.00in /  0mm 335.00 W/m2
18:54 63.6 °F /  17.6 °C 29.9 °F /  -1.2 °C 29.96in /  1014.4hPa West 1.2mph /  1.9km/h 0.1mph /  0.2km/h 28% 0.00in /  0mm 274.40 W/m2
18:59 63.2 °F /  17.3 °C 30.4 °F /  -0.9 °C 29.96in /  1014.4hPa Calm     29% 0.00in /  0mm 273.40 W/m2
19:04 62.8 °F /  17.1 °C 29.2 °F /  -1.6 °C 29.96in /  1014.4hPa West 1.2mph /  1.9km/h   28% 0.00in /  0mm 265.30 W/m2
19:09 62.1 °F /  16.7 °C 29.4 °F /  -1.4 °C 29.96in /  1014.4hPa West 1.2mph /  1.9km/h 0.2mph /  0.3km/h 29% 0.00in /  0mm 260.30 W/m2
19:14 61.6 °F /  16.4 °C 29.0 °F /  -1.7 °C 29.96in /  1014.4hPa NNE 2.3mph /  3.7km/h   29% 0.00in /  0mm 257.20 W/m2
19:19 61.2 °F /  16.2 °C 31.1 °F /  -0.5 °C 29.96in /  1014.4hPa NNW 3.5mph /  5.6km/h 1.2mph /  1.9km/h 32% 0.00in /  0mm 252.20 W/m2
19:24 60.8 °F /  16 °C 30.7 °F /  -0.7 °C 29.96in /  1014.4hPa Calm     32% 0.00in /  0mm 247.10 W/m2
19:29 60.4 °F /  15.8 °C 31.1 °F /  -0.5 °C 29.96in /  1014.4hPa Calm     33% 0.00in /  0mm 238.10 W/m2
19:34 59.8 °F /  15.4 °C 31.3 °F /  -0.4 °C 29.96in /  1014.4hPa Calm     34% 0.00in /  0mm 226.90 W/m2
19:39 59.1 °F /  15.1 °C 30.7 °F /  -0.7 °C 29.96in /  1014.4hPa Calm     34% 0.00in /  0mm 224.90 W/m2
19:44 58.5 °F /  14.7 °C 31.6 °F /  -0.2 °C 29.96in /  1014.4hPa Calm     36% 0.00in /  0mm 209.80 W/m2
19:49 57.7 °F /  14.3 °C 31.6 °F /  -0.2 °C 29.97in /  1014.8hPa Calm     37% 0.00in /  0mm 190.60 W/m2
19:54 57.2 °F /  14 °C 31.8 °F /  -0.1 °C 29.97in /  1014.8hPa Calm     38% 0.00in /  0mm 177.40 W/m2
19:59 56.7 °F /  13.7 °C 32.6 °F /  0.3 °C 29.97in /  1014.8hPa Calm     40% 0.00in /  0mm 147.20 W/m2
20:04 55.9 °F /  13.3 °C 33.1 °F /  0.6 °C 29.97in /  1014.8hPa NNW 1.2mph /  1.9km/h 0.7mph /  1.1km/h 42% 0.00in /  0mm 108.80 W/m2
20:09 54.6 °F /  12.6 °C 30.1 °F /  -1.1 °C 29.97in /  1014.8hPa NNW 1.2mph /  1.9km/h   39% 0.00in /  0mm 60.30 W/m2
20:14 53.8 °F /  12.1 °C 31.8 °F /  -0.1 °C 29.98in /  1015.1hPa Calm     43% 0.00in /  0mm 0.00 W/m2
20:19 53.2 °F /  11.8 °C 31.8 °F /  -0.1 °C 29.98in /  1015.1hPa Calm     44% 0.00in /  0mm 0.00 W/m2
20:24 52.7 °F /  11.5 °C 31.4 °F /  -0.3 °C 29.98in /  1015.1hPa Calm     44% 0.00in /  0mm 0.00 W/m2
20:29 52.3 °F /  11.3 °C 32.1 °F /  0.1 °C 29.98in /  1015.1hPa Calm     46% 0.00in /  0mm 0.00 W/m2
20:34 51.8 °F /  11 °C 32.2 °F /  0.1 °C 29.98in /  1015.1hPa Calm     47% 0.00in /  0mm 0.00 W/m2
20:39 51.4 °F /  10.8 °C 32.3 °F /  0.2 °C 29.98in /  1015.1hPa Calm     48% 0.00in /  0mm 0.00 W/m2
20:44 50.7 °F /  10.4 °C 32.2 °F /  0.1 °C 29.99in /  1015.5hPa Calm     49% 0.00in /  0mm 0.00 W/m2
20:49 50.2 °F /  10.1 °C 30.7 °F /  -0.7 °C 29.99in /  1015.5hPa NNW 1.2mph /  1.9km/h   47% 0.00in /  0mm 0.00 W/m2
20:54 49.5 °F /  9.7 °C 32.1 °F /  0.1 °C 29.99in /  1015.5hPa Calm     51% 0.00in /  0mm 0.00 W/m2
20:59 48.7 °F /  9.3 °C 30.4 °F /  -0.9 °C 29.99in /  1015.5hPa Calm     49% 0.00in /  0mm 0.00 W/m2
21:04 48.1 °F /  8.9 °C 32.2 °F /  0.1 °C 29.99in /  1015.5hPa Calm     54% 0.00in /  0mm 0.00 W/m2
21:09 47.7 °F /  8.7 °C 32.3 °F /  0.2 °C 29.99in /  1015.5hPa Calm     55% 0.00in /  0mm 0.00 W/m2
21:14 47.3 °F /  8.5 °C 31.9 °F /  -0.1 °C 30.00in /  1015.8hPa Calm     55% 0.00in /  0mm 0.00 W/m2
21:19 47.0 °F /  8.3 °C 30.7 °F /  -0.7 °C 30.00in /  1015.8hPa Calm     53% 0.00in /  0mm 0.00 W/m2
21:24 46.7 °F /  8.2 °C 30.5 °F /  -0.8 °C 30.00in /  1015.8hPa Calm     53% 0.00in /  0mm 0.00 W/m2
21:29 46.5 °F /  8.1 °C 31.2 °F /  -0.4 °C 30.00in /  1015.8hPa Calm     55% 0.00in /  0mm 0.00 W/m2
21:34 46.3 °F /  7.9 °C 30.5 °F /  -0.8 °C 30.00in /  1015.8hPa Calm     54% 0.00in /  0mm 0.00 W/m2
21:39 45.7 °F /  7.6 °C 30.0 °F /  -1.1 °C 30.00in /  1015.8hPa Calm     54% 0.00in /  0mm 0.00 W/m2
21:44 45.3 °F /  7.4 °C 30.5 °F /  -0.8 °C 30.00in /  1015.8hPa Calm     56% 0.00in /  0mm 0.00 W/m2
21:49 44.9 °F /  7.2 °C 30.1 °F /  -1.1 °C 30.00in /  1015.8hPa Calm     56% 0.00in /  0mm 0.00 W/m2
21:54 44.6 °F /  7 °C 30.7 °F /  -0.7 °C 30.00in /  1015.8hPa Calm     58% 0.00in /  0mm 0.00 W/m2
21:59 44.2 °F /  6.8 °C 29.9 °F /  -1.2 °C 30.00in /  1015.8hPa Calm     57% 0.00in /  0mm 0.00 W/m2
22:04 43.9 °F /  6.6 °C 30.5 °F /  -0.8 °C 30.00in /  1015.8hPa Calm     59% 0.00in /  0mm 0.00 W/m2
22:08 43.6 °F /  6.4 °C 30.2 °F /  -1 °C 30.00in /  1015.8hPa Calm     59% 0.00in /  0mm 0.00 W/m2
22:19 43.0 °F /  6.1 °C 30.9 °F /  -0.6 °C 30.00in /  1015.8hPa Calm     62% 0.00in /  0mm 0.00 W/m2
22:24 42.7 °F /  5.9 °C 31.4 °F /  -0.3 °C 30.00in /  1015.8hPa Calm     64% 0.00in /  0mm 0.00 W/m2
22:29 42.5 °F /  5.8 °C 31.6 °F /  -0.2 °C 30.00in /  1015.8hPa Calm     65% 0.00in /  0mm 0.00 W/m2
22:34 42.4 °F /  5.8 °C 31.8 °F /  -0.1 °C 30.00in /  1015.8hPa Calm     66% 0.00in /  0mm 0.00 W/m2
22:39 42.2 °F /  5.7 °C 31.6 °F /  -0.2 °C 30.00in /  1015.8hPa Calm     66% 0.00in /  0mm 0.00 W/m2
22:44 42.1 °F /  5.6 °C 31.2 °F /  -0.4 °C 30.00in /  1015.8hPa Calm     65% 0.00in /  0mm 0.00 W/m2
22:49 41.6 °F /  5.3 °C 31.1 °F /  -0.5 °C 30.00in /  1015.8hPa Calm     66% 0.00in /  0mm 0.00 W/m2
22:54 41.0 °F /  5 °C 30.9 °F /  -0.6 °C 30.00in /  1015.8hPa Calm     67% 0.00in /  0mm 0.00 W/m2
22:57 41.0 °F /  5 °C 31.2 °F /  -0.4 °C 30.00in /  1015.8hPa Calm     68% 0.00in /  0mm 0.00 W/m2
23:04 40.7 °F /  4.8 °C 31.0 °F /  -0.6 °C 30.00in /  1015.8hPa Calm     68% 0.00in /  0mm 0.00 W/m2
23:09 40.2 °F /  4.6 °C 30.8 °F /  -0.7 °C 30.00in /  1015.8hPa Calm     69% 0.00in /  0mm 0.00 W/m2
23:14 40.1 °F /  4.5 °C 30.7 °F /  -0.7 °C 30.00in /  1015.8hPa Calm     69% 0.00in /  0mm 0.00 W/m2
23:19 39.8 °F /  4.3 °C 30.5 °F /  -0.8 °C 30.00in /  1015.8hPa Calm     69% 0.00in /  0mm 0.00 W/m2
23:24 39.5 °F /  4.2 °C 30.2 °F /  -1 °C 30.00in /  1015.8hPa Calm     69% 0.00in /  0mm 0.00 W/m2
23:25 39.4 °F /  4.1 °C 30.1 °F /  -1.1 °C 30.00in /  1015.8hPa Calm     69% 0.00in /  0mm 0.00 W/m2
23:34 39.0 °F /  3.9 °C 30.0 °F /  -1.1 °C 30.00in /  1015.8hPa Calm     70% 0.00in /  0mm 0.00 W/m2
23:39 38.3 °F /  3.5 °C 30.1 °F /  -1.1 °C 30.01in /  1016.1hPa Calm     72% 0.00in /  0mm 0.00 W/m2
23:44 38.0 °F /  3.3 °C 29.8 °F /  -1.2 °C 30.01in /  1016.1hPa Calm     72% 0.00in /  0mm 0.00 W/m2
23:49 38.0 °F /  3.3 °C 30.1 °F /  -1.1 °C 30.01in /  1016.1hPa Calm     73% 0.00in /  0mm 0.00 W/m2
23:54 38.0 °F /  3.3 °C 30.1 °F /  -1.1 °C 30.01in /  1016.1hPa Calm     73% 0.00in /  0mm 0.00 W/m2
23:59 37.9 °F /  3.3 °C 30.4 °F /  -0.9 °C 30.01in /  1016.1hPa Calm     74% 0.00in /  0mm 0.00 W/m2
Winter, Wisconsin USA
Compliments of Weather Underground - 4 mb